Time;durP1;ratioP1;P1;durP2;ratioP2;P2;SDS_P1;SDS_P2;PMS_P1;PMS_P2;Temp;Humidity;BMP_temperature;BMP_pressure;BME280_temperature;BME280_humidity;BME280_pressure;Samples;Min_cycle;Max_cycle;Signal;HPM_P1;HPM_P2
2022/10/22 00:01:38;;;;;;;;;;;;;;;12.37;75.08;99862.56;4431301;32;35238;-86
2022/10/22 00:04:24;;;;;;;;;;;;;;;12.45;74.34;99859.03;4442849;32;34576;-86
2022/10/22 00:07:13;;;;;;;;;;;;;;;12.35;74.24;99867.56;4432775;32;32760;-86
2022/10/22 00:09:59;;;;;;;;;;;;;;;12.46;72.57;99866.16;4442836;32;34520;-86
2022/10/22 00:12:46;;;;;;;;;;;;;;;12.25;73.72;99862.34;4442540;32;36313;-86
2022/10/22 00:15:32;;;;;;;;;;;;;;;12.43;73.88;99855.78;4446182;32;35859;-86
2022/10/22 00:18:18;;;;;;;;;;;;;;;12.73;70.99;99858.81;4432186;32;34015;-86
2022/10/22 00:21:05;;;;;;;;;;;;;;;12.68;70.78;99861.69;4441807;32;34865;-86
2022/10/22 00:23:54;;;;;;;;;;;;;;;12.66;71.32;99861.19;4430076;32;36142;-87
2022/10/22 00:26:40;;;;;;;;;;;;;;;12.32;72.87;99860.78;4439003;32;34889;-87
2022/10/22 00:29:26;;;;;;;;;;;;;;;12.54;72.91;99856.31;4442168;32;34135;-87
2022/10/22 00:32:14;;;;;;;;;;;;;;;12.49;72.64;99849.00;4432269;32;34953;-86
2022/10/22 00:35:00;;;;;;;;;;;;;;;12.73;71.00;99850.56;4433355;32;34917;-87
2022/10/22 00:37:47;;;;;;;;;;;;;;;12.77;71.00;99846.03;4433497;32;35142;-87
2022/10/22 00:40:34;;;;;;;;;;;;;;;12.76;70.47;99844.41;4442217;32;34241;-87
2022/10/22 00:43:21;;;;;;;;;;;;;;;12.71;70.95;99847.31;4439250;32;34991;-87
2022/10/22 00:46:07;;;;;;;;;;;;;;;12.44;72.76;99838.19;4418579;32;36194;-87
2022/10/22 00:48:55;;;;;;;;;;;;;;;12.56;72.68;99830.12;4429673;32;34961;-87
2022/10/22 00:51:41;;;;;;;;;;;;;;;12.66;71.08;99826.25;4429691;32;34952;-86
2022/10/22 00:54:27;;;;;;;;;;;;;;;12.69;70.62;99833.06;4444379;32;34857;-86
2022/10/22 00:57:15;;;;;;;;;;;;;;;12.68;71.22;99840.50;4444239;32;35127;-86
2022/10/22 01:00:03;;;;;;;;;;;;;;;12.47;72.70;99843.03;4429874;32;34965;-87
2022/10/22 01:02:55;;;;;;;;;;;;;;;12.30;74.03;99843.00;4444676;32;34038;-86
2022/10/22 01:05:51;;;;;;;;;;;;;;;12.35;74.30;99837.34;4428036;32;34950;-87
2022/10/22 01:09:15;;;;;;;;;;;;;;;12.77;71.62;99843.28;4431675;32;36661;-86
2022/10/22 01:12:20;;;;;;;;;;;;;;;12.55;72.42;99838.69;4399646;32;152083;-86
2022/10/22 01:15:11;;;;;;;;;;;;;;;12.18;74.30;99840.00;4401033;32;34922;-86
2022/10/22 01:18:03;;;;;;;;;;;;;;;12.62;72.47;99835.50;4421847;32;34873;-86
2022/10/22 01:21:08;;;;;;;;;;;;;;;12.63;71.52;99845.34;4443538;32;36092;-86
2022/10/22 01:24:02;;;;;;;;;;;;;;;12.33;72.86;99837.66;4443416;32;34851;-86
2022/10/22 01:26:54;;;;;;;;;;;;;;;12.59;72.42;99836.94;4433461;32;34540;-87
2022/10/22 01:30:07;;;;;;;;;;;;;;;12.62;71.79;99827.25;4432005;32;35352;-86
2022/10/22 01:32:58;;;;;;;;;;;;;;;12.54;71.73;99832.38;4432853;32;34877;-85
2022/10/22 01:35:45;;;;;;;;;;;;;;;12.30;73.41;99837.50;4429220;32;34749;-86
2022/10/22 01:38:32;;;;;;;;;;;;;;;12.38;73.55;99839.47;4433072;32;35062;-86
2022/10/22 01:41:20;;;;;;;;;;;;;;;12.53;72.17;99847.25;4444550;32;34452;-86
2022/10/22 01:44:05;;;;;;;;;;;;;;;12.23;73.41;99831.63;4428483;32;35135;-86
2022/10/22 01:46:52;;;;;;;;;;;;;;;11.96;75.92;99838.97;4429923;32;34861;-86
2022/10/22 01:49:50;;;;;;;;;;;;;;;12.15;74.46;99839.53;4422342;32;34980;-86
2022/10/22 01:52:44;;;;;;;;;;;;;;;11.76;76.78;99828.47;4426361;32;35755;-86
2022/10/22 01:55:49;;;;;;;;;;;;;;;11.75;77.39;99826.84;4432024;32;35241;-86
2022/10/22 01:58:41;;;;;;;;;;;;;;;11.97;76.31;99823.28;4444775;32;34848;-86
2022/10/22 02:01:40;;;;;;;;;;;;;;;12.23;74.19;99831.63;4441688;32;34044;-86
2022/10/22 02:04:32;;;;;;;;;;;;;;;12.27;73.45;99829.88;4431899;32;35748;-86
2022/10/22 02:07:19;;;;;;;;;;;;;;;12.02;74.89;99823.16;4430578;32;35098;-86
2022/10/22 02:10:06;;;;;;;;;;;;;;;12.02;74.99;99826.72;4421077;32;34938;-87
2022/10/22 02:12:54;;;;;;;;;;;;;;;12.02;75.35;99820.41;4427257;32;34502;-86
2022/10/22 02:15:40;;;;;;;;;;;;;;;11.70;75.97;99803.91;4428670;32;34419;-85
2022/10/22 02:18:27;;;;;;;;;;;;;;;11.52;77.28;99815.88;4430684;32;35237;-86
2022/10/22 02:21:23;;;;;;;;;;;;;;;11.30;79.24;99813.13;4425719;32;34468;-86
2022/10/22 02:24:10;;;;;;;;;;;;;;;11.77;77.15;99824.59;4433678;32;35548;-86
2022/10/22 02:26:59;;;;;;;;;;;;;;;11.38;79.68;99817.87;4430307;32;35692;-85
2022/10/22 02:29:51;;;;;;;;;;;;;;;10.58;85.75;99812.03;4433092;32;33953;-86
2022/10/22 02:32:41;;;;;;;;;;;;;;;11.63;80.20;99827.41;4427992;32;35231;-85
2022/10/22 02:35:28;;;;;;;;;;;;;;;11.80;78.46;99813.00;4434828;32;34326;-85
2022/10/22 02:38:14;;;;;;;;;;;;;;;11.95;77.74;99815.34;4423444;32;36443;-84
2022/10/22 02:41:00;;;;;;;;;;;;;;;12.24;74.85;99816.75;4424221;32;34821;-86
2022/10/22 02:43:48;;;;;;;;;;;;;;;12.11;75.49;99824.81;4431170;32;34441;-85
2022/10/22 02:46:34;;;;;;;;;;;;;;;12.11;75.52;99830.28;4430540;32;34888;-85
2022/10/22 02:49:21;;;;;;;;;;;;;;;11.65;77.37;99844.41;4435415;32;35785;-85
2022/10/22 02:52:08;;;;;;;;;;;;;;;11.83;77.18;99851.59;4435202;32;36723;-86
2022/10/22 02:54:56;;;;;;;;;;;;;;;11.74;77.75;99844.44;4430104;32;34875;-86
2022/10/22 02:57:43;;;;;;;;;;;;;;;11.71;77.72;99843.13;4435744;32;34167;-86
2022/10/22 03:00:29;;;;;;;;;;;;;;;11.74;77.89;99841.69;4435939;32;35777;-85
2022/10/22 03:03:15;;;;;;;;;;;;;;;11.80;77.63;99834.94;4436253;32;35015;-86
2022/10/22 03:06:03;;;;;;;;;;;;;;;11.67;78.02;99831.19;4429783;32;34869;-86
2022/10/22 03:08:49;;;;;;;;;;;;;;;11.74;77.61;99841.69;4430026;32;34801;-85
2022/10/22 03:11:35;;;;;;;;;;;;;;;11.41;79.14;99834.56;4434159;32;35001;-85
2022/10/22 03:14:22;;;;;;;;;;;;;;;11.54;78.51;99835.59;4429869;32;35245;-86
2022/10/22 03:17:08;;;;;;;;;;;;;;;11.61;78.03;99827.75;4435249;32;35494;-85
2022/10/22 03:19:55;;;;;;;;;;;;;;;11.70;77.52;99814.09;4429024;32;34111;-85
2022/10/22 03:22:42;;;;;;;;;;;;;;;11.60;77.48;99815.12;4439886;32;34950;-86
2022/10/22 03:25:33;;;;;;;;;;;;;;;11.45;77.95;99812.78;4425195;32;36801;-86
2022/10/22 03:28:19;;;;;;;;;;;;;;;11.58;77.94;99809.13;4432772;32;35168;-85
2022/10/22 03:31:07;;;;;;;;;;;;;;;11.50;78.23;99807.19;4430517;32;34336;-85
2022/10/22 03:33:54;;;;;;;;;;;;;;;11.45;78.70;99807.31;4435040;32;34944;-86
2022/10/22 03:36:41;;;;;;;;;;;;;;;11.82;76.17;99810.75;4440070;32;35152;-86
2022/10/22 03:39:29;;;;;;;;;;;;;;;11.91;75.63;99800.66;4433736;32;35272;-85
2022/10/22 03:42:17;;;;;;;;;;;;;;;11.66;76.84;99805.63;4425161;32;34008;-86
2022/10/22 03:45:03;;;;;;;;;;;;;;;11.30;78.70;99810.41;4432479;32;35790;-86
2022/10/22 03:47:50;;;;;;;;;;;;;;;11.19;80.33;99798.88;4428602;32;36086;-86
2022/10/22 03:50:37;;;;;;;;;;;;;;;10.77;82.55;99792.72;4432746;32;35636;-86
2022/10/22 03:53:23;;;;;;;;;;;;;;;10.60;84.41;99782.41;4439569;32;34163;-87
2022/10/22 03:56:10;;;;;;;;;;;;;;;10.61;84.38;99784.00;4444958;32;34816;-86
2022/10/22 03:58:56;;;;;;;;;;;;;;;10.48;85.13;99779.37;4433248;32;35120;-86
2022/10/22 04:01:43;;;;;;;;;;;;;;;10.90;83.20;99780.91;4432728;32;34965;-85
2022/10/22 04:04:30;;;;;;;;;;;;;;;10.57;84.50;99793.97;4441234;32;34123;-85
2022/10/22 04:07:16;;;;;;;;;;;;;;;10.57;83.47;99815.91;4432270;32;34945;-86
2022/10/22 04:10:03;;;;;;;;;;;;;;;9.67;90.56;99804.47;4431683;32;35204;-85
2022/10/22 04:12:50;;;;;;;;;;;;;;;10.25;87.27;99809.41;4420994;32;34517;-87
2022/10/22 04:15:37;;;;;;;;;;;;;;;9.34;91.96;99812.69;4425472;32;34017;-87
2022/10/22 04:18:23;;;;;;;;;;;;;;;9.58;90.96;99798.06;4442422;32;35796;-86
2022/10/22 04:21:10;;;;;;;;;;;;;;;8.95;95.63;99811.09;4444093;32;34879;-86
2022/10/22 04:23:59;;;;;;;;;;;;;;;9.57;93.04;99812.88;4432687;32;34710;-87
2022/10/22 04:26:52;;;;;;;;;;;;;;;9.30;94.36;99811.63;4432514;32;35000;-87
2022/10/22 04:29:38;;;;;;;;;;;;;;;9.36;94.70;99804.16;4431452;32;34845;-87
2022/10/22 04:32:27;;;;;;;;;;;;;;;10.41;87.35;99798.16;4428938;32;34800;-86
2022/10/22 04:35:14;;;;;;;;;;;;;;;10.60;85.36;99796.09;4432048;32;34465;-86
2022/10/22 04:38:02;;;;;;;;;;;;;;;10.58;84.81;99796.41;4443172;32;34082;-85
2022/10/22 04:40:48;;;;;;;;;;;;;;;10.74;84.11;99791.41;4438102;32;34568;-85
2022/10/22 04:43:34;;;;;;;;;;;;;;;10.87;82.58;99803.47;4427526;32;35795;-85
2022/10/22 04:46:21;;;;;;;;;;;;;;;10.79;82.97;99795.97;4443351;32;34931;-86
2022/10/22 04:49:07;;;;;;;;;;;;;;;10.72;82.92;99807.34;4430401;32;34760;-85
2022/10/22 04:51:54;;;;;;;;;;;;;;;10.35;85.14;99803.72;4432655;32;34867;-86
2022/10/22 04:54:40;;;;;;;;;;;;;;;10.04;86.86;99791.75;4431045;32;35284;-86
2022/10/22 04:57:30;;;;;;;;;;;;;;;10.00;88.34;99785.25;4440366;32;33606;-86
2022/10/22 05:00:24;;;;;;;;;;;;;;;10.28;87.41;99797.06;4442395;32;33858;-85
2022/10/22 05:03:12;;;;;;;;;;;;;;;10.46;86.14;99803.53;4442710;32;34931;-86
2022/10/22 05:06:00;;;;;;;;;;;;;;;10.55;84.99;99807.97;4442133;32;34805;-85
2022/10/22 05:08:48;;;;;;;;;;;;;;;10.41;85.38;99800.88;4434321;32;34732;-86
2022/10/22 05:11:47;;;;;;;;;;;;;;;9.87;88.24;99797.81;4431844;32;34831;-87
2022/10/22 05:14:34;;;;;;;;;;;;;;;9.97;88.57;99796.81;4431150;32;35852;-86
2022/10/22 05:17:21;;;;;;;;;;;;;;;10.04;88.25;99792.53;4440739;32;35160;-85
2022/10/22 05:20:09;;;;;;;;;;;;;;;9.18;93.23;99795.69;4420432;32;35096;-86
2022/10/22 05:22:58;;;;;;;;;;;;;;;9.76;90.61;99804.56;4428354;32;33885;-86
2022/10/22 05:25:44;;;;;;;;;;;;;;;10.05;88.91;99804.34;4432763;32;34763;-86
2022/10/22 05:28:32;;;;;;;;;;;;;;;9.59;90.72;99797.78;4425599;32;35195;-85
2022/10/22 05:31:20;;;;;;;;;;;;;;;10.07;88.97;99802.06;4424550;32;34726;-86
2022/10/22 05:34:08;;;;;;;;;;;;;;;10.34;86.12;99802.13;4429760;32;35439;-86
2022/10/22 05:37:08;;;;;;;;;;;;;;;10.07;88.46;99796.59;4433101;32;34419;-86
2022/10/22 05:39:56;;;;;;;;;;;;;;;10.65;83.99;99801.47;4443222;32;35014;-86
2022/10/22 05:43:04;;;;;;;;;;;;;;;10.61;83.84;99794.97;4438428;32;35760;-85
2022/10/22 05:45:57;;;;;;;;;;;;;;;10.59;84.32;99791.75;4440371;32;34184;-86
2022/10/22 05:48:47;;;;;;;;;;;;;;;10.17;85.90;99793.69;4427268;32;35798;-85
2022/10/22 05:51:37;;;;;;;;;;;;;;;10.47;85.60;99805.13;4439704;32;35348;-85
2022/10/22 05:54:24;;;;;;;;;;;;;;;10.64;84.81;99821.75;4440597;32;35798;-85
2022/10/22 05:57:10;;;;;;;;;;;;;;;10.54;84.94;99816.50;4429648;32;34902;-86
2022/10/22 05:59:57;;;;;;;;;;;;;;;10.68;84.71;99803.59;4442099;32;34630;-86
2022/10/22 06:02:48;;;;;;;;;;;;;;;10.80;83.66;99805.81;4441643;32;36177;-85
2022/10/22 06:05:36;;;;;;;;;;;;;;;10.33;86.69;99816.09;4442160;32;34904;-85
2022/10/22 06:08:22;;;;;;;;;;;;;;;9.65;90.28;99839.53;4428343;32;34861;-85
2022/10/22 06:11:23;;;;;;;;;;;;;;;10.59;86.05;99841.06;4438441;32;35621;-85
2022/10/22 06:14:15;;;;;;;;;;;;;;;10.67;85.63;99843.09;4430945;32;35378;-86
2022/10/22 06:17:03;;;;;;;;;;;;;;;10.96;84.14;99837.25;4431323;32;35876;-85
2022/10/22 06:19:50;;;;;;;;;;;;;;;11.05;83.42;99842.81;4422389;32;33866;-84
2022/10/22 06:22:37;;;;;;;;;;;;;;;11.11;83.30;99827.84;4428485;32;35624;-85
2022/10/22 06:25:24;;;;;;;;;;;;;;;11.25;81.92;99838.78;4442005;32;35315;-85
2022/10/22 06:28:18;;;;;;;;;;;;;;;11.12;82.59;99836.88;4420385;32;34624;-85
2022/10/22 06:31:07;;;;;;;;;;;;;;;10.95;83.89;99837.53;4443538;32;34994;-86
2022/10/22 06:34:00;;;;;;;;;;;;;;;10.56;85.89;99827.97;4430818;32;34487;-85
2022/10/22 06:36:50;;;;;;;;;;;;;;;10.53;86.03;99832.16;4416916;32;35971;-85
2022/10/22 06:39:42;;;;;;;;;;;;;;;10.69;85.92;99834.56;4444129;32;35131;-86
2022/10/22 06:42:29;;;;;;;;;;;;;;;10.60;86.29;99847.34;4441773;32;34195;-85
2022/10/22 06:45:15;;;;;;;;;;;;;;;10.59;87.59;99865.72;4440376;32;34814;-84
2022/10/22 06:48:11;;;;;;;;;;;;;;;10.60;87.81;99858.31;4443388;32;33428;-85
2022/10/22 06:51:04;;;;;;;;;;;;;;;9.86;90.83;99854.47;4442067;32;34529;-84
2022/10/22 06:53:53;;;;;;;;;;;;;;;11.05;85.38;99847.47;4433070;32;34112;-84
2022/10/22 06:56:41;;;;;;;;;;;;;;;11.13;84.34;99852.25;4446880;32;35771;-85
2022/10/22 06:59:29;;;;;;;;;;;;;;;10.17;88.81;99844.91;4441725;32;35188;-84
2022/10/22 07:02:16;;;;;;;;;;;;;;;11.46;82.44;99845.38;4440612;32;34990;-84
2022/10/22 07:05:03;;;;;;;;;;;;;;;11.54;82.01;99860.28;4442491;32;34087;-84
2022/10/22 07:07:51;;;;;;;;;;;;;;;10.19;90.83;99859.91;4442667;32;35500;-85
2022/10/22 07:13:35;;;;;;;;;;;;;;;11.69;83.17;99840.69;4443551;32;36018;-85
2022/10/22 07:16:29;;;;;;;;;;;;;;;11.64;79.97;99840.84;4433712;32;34333;-84
2022/10/22 07:19:19;;;;;;;;;;;;;;;12.14;76.51;99840.66;4438735;32;34988;-84
2022/10/22 07:22:12;;;;;;;;;;;;;;;12.39;74.40;99841.06;4441383;32;35085;-83
2022/10/22 07:24:59;;;;;;;;;;;;;;;12.17;77.28;99835.66;4447030;32;34964;-84
2022/10/22 07:27:52;;;;;;;;;;;;;;;12.49;75.53;99835.28;4448890;32;33934;-84
2022/10/22 07:30:45;;;;;;;;;;;;;;;12.77;73.87;99835.84;4432647;32;34861;-83
2022/10/22 07:33:35;;;;;;;;;;;;;;;12.53;73.73;99843.72;4430853;32;34715;-84
2022/10/22 07:36:30;;;;;;;;;;;;;;;12.75;73.02;99848.28;4442386;32;34967;-84
2022/10/22 07:39:24;;;;;;;;;;;;;;;12.28;73.56;99853.47;4444505;32;33536;-84
2022/10/22 07:42:23;;;;;;;;;;;;;;;12.77;73.80;99837.78;4442589;32;35770;-84
2022/10/22 07:45:09;;;;;;;;;;;;;;;12.67;71.41;99827.09;4437839;32;35808;-84
2022/10/22 07:47:56;;;;;;;;;;;;;;;13.01;69.15;99829.88;4433933;32;34345;-84
2022/10/22 07:50:50;;;;;;;;;;;;;;;13.15;67.83;99829.75;4433546;32;34585;-83
2022/10/22 07:53:37;;;;;;;;;;;;;;;13.00;67.85;99844.75;4421627;32;35681;-84
2022/10/22 07:56:26;;;;;;;;;;;;;;;13.20;67.06;99837.00;4422047;32;33929;-84
2022/10/22 07:59:13;;;;;;;;;;;;;;;13.03;67.64;99849.66;4412492;32;33330;-84
2022/10/22 08:02:11;;;;;;;;;;;;;;;13.16;67.12;99838.78;4422280;32;33428;-84
2022/10/22 08:05:05;;;;;;;;;;;;;;;13.58;66.24;99828.13;4422017;32;35214;-82
2022/10/22 08:07:55;;;;;;;;;;;;;;;13.86;64.31;99836.78;4419553;32;34914;-84
2022/10/22 08:10:46;;;;;;;;;;;;;;;14.36;62.20;99847.97;4432564;32;34675;-84
2022/10/22 08:13:33;;;;;;;;;;;;;;;14.36;61.58;99842.44;4432539;32;33569;-83
2022/10/22 08:16:22;;;;;;;;;;;;;;;14.48;61.11;99843.69;4432031;32;34325;-84
2022/10/22 08:19:09;;;;;;;;;;;;;;;14.00;63.92;99834.63;4432525;32;34504;-84
2022/10/22 08:21:56;;;;;;;;;;;;;;;14.75;62.09;99834.19;4414393;32;34949;-84
2022/10/22 08:24:49;;;;;;;16.10;7.05;;;;;;;14.80;60.20;99836.75;4410429;32;34406;-83
2022/10/22 08:27:44;;;;;;;17.67;7.93;;;;;;;15.28;59.68;99835.41;4406047;32;34560;-84
2022/10/22 08:30:36;;;;;;;13.77;7.20;;;;;;;15.56;60.55;99835.63;4405449;32;34897;-83
2022/10/22 08:33:26;;;;;;;13.55;8.40;;;;;;;15.95;59.40;99839.81;4411284;32;34145;-83
2022/10/22 08:36:16;;;;;;;14.65;7.97;;;;;;;16.07;55.34;99841.81;4405112;32;32687;-83
2022/10/22 08:39:03;;;;;;;14.73;7.62;;;;;;;14.92;60.76;99838.78;4404783;32;33025;-85
2022/10/22 08:41:58;;;;;;;14.98;7.32;;;;;;;15.24;59.68;99835.28;4405894;32;34464;-83
2022/10/22 08:45:14;;;;;;;13.68;7.90;;;;;;;15.55;60.34;99833.22;4404213;32;34411;-83
2022/10/22 08:48:34;;;;;;;13.65;8.18;;;;;;;15.56;59.39;99840.37;4400215;32;34696;-83
2022/10/22 08:51:34;;;;;;;18.83;8.05;;;;;;;15.91;57.22;99851.91;4402976;32;34507;-84
2022/10/22 08:54:52;;;;;;;15.32;8.13;;;;;;;15.85;58.97;99848.56;4402825;32;34843;-83
2022/10/22 08:58:17;;;;;;;14.93;8.48;;;;;;;15.60;57.92;99853.16;4406742;32;35712;-84
2022/10/22 09:01:12;;;;;;;16.42;7.93;;;;;;;15.74;57.60;99837.12;4402818;32;34868;-83
2022/10/22 09:04:20;;;;;;;13.60;7.82;;;;;;;16.30;56.11;99841.37;4402326;32;33326;-83
2022/10/22 09:07:09;;;;;;;13.25;8.07;;;;;;;16.10;56.89;99852.16;4389971;32;35726;-83
2022/10/22 09:10:03;;;;;;;15.80;8.43;;;;;;;16.08;58.13;99851.72;4401937;32;34287;-84
2022/10/22 09:13:04;;;;;;;15.68;8.75;;;;;;;15.68;59.13;99855.06;4405653;32;35011;-82
2022/10/22 09:15:58;;;;;;;16.58;8.40;;;;;;;15.88;58.57;99836.00;4405493;32;35124;-83
2022/10/22 09:19:11;;;;;;;15.75;7.93;;;;;;;15.99;57.34;99834.41;4401197;32;33452;-83
2022/10/22 09:22:30;;;;;;;15.10;8.40;;;;;;;16.03;57.54;99837.31;4403369;32;34012;-83
2022/10/22 09:25:21;;;;;;;14.80;8.30;;;;;;;15.47;59.39;99832.16;4400907;32;34232;-82
2022/10/22 09:28:08;;;;;;;17.73;9.02;;;;;;;15.81;58.37;99833.81;4402537;32;33055;-82
2022/10/22 09:31:01;;;;;;;20.60;8.10;;;;;;;16.28;56.13;99850.03;4392480;32;33297;-82
2022/10/22 09:33:54;;;;;;;19.02;8.77;;;;;;;15.61;59.43;99857.53;4401979;32;33581;-82
2022/10/22 09:36:42;;;;;;;14.95;8.45;;;;;;;16.01;57.61;99858.97;4409093;32;34081;-82
2022/10/22 09:39:46;;;;;;;18.08;8.32;;;;;;;16.22;57.16;99867.16;4402801;32;34562;-83
2022/10/22 09:42:34;;;;;;;16.05;7.93;;;;;;;16.28;57.13;99857.50;4403129;32;33473;-83
2022/10/22 09:45:24;;;;;;;15.60;7.90;;;;;;;16.11;57.73;99862.09;4406400;32;35740;-82
2022/10/22 09:48:26;;;;;;;16.90;8.57;;;;;;;16.28;57.84;99865.78;4405359;32;35509;-82
2022/10/22 09:51:20;;;;;;;14.70;7.95;;;;;;;16.15;58.38;99846.44;4407677;32;33115;-83
2022/10/22 09:54:18;;;;;;;16.70;8.40;;;;;;;16.42;57.13;99849.66;4403293;32;34940;-83
2022/10/22 09:57:20;;;;;;;16.60;8.63;;;;;;;16.14;58.66;99844.03;4402397;32;34671;-82
2022/10/22 10:00:12;;;;;;;16.75;9.02;;;;;;;16.53;56.27;99845.28;4412037;32;33184;-82
2022/10/22 10:03:16;;;;;;;17.35;8.43;;;;;;;16.18;58.37;99850.47;4403755;32;34655;-82
2022/10/22 10:06:22;;;;;;;17.33;8.85;;;;;;;16.19;59.68;99852.91;4403271;32;34927;-83
2022/10/22 10:09:21;;;;;;;15.93;9.65;;;;;;;16.63;58.68;99855.91;4403435;32;34313;-83
2022/10/22 10:12:18;;;;;;;19.92;9.10;;;;;;;16.69;56.93;99850.94;4406986;32;34828;-83
2022/10/22 10:15:11;;;;;;;;;;;;;;;16.40;58.89;99840.94;4414836;32;34569;-82
2022/10/22 10:18:21;;;;;;;;;;;;;;;16.87;56.90;99827.41;4413569;32;34927;-82
2022/10/22 10:21:20;;;;;;;;;;;;;;;16.88;56.13;99828.25;4428579;32;34927;-82
2022/10/22 10:24:22;;;;;;;;;;;;;;;16.55;58.18;99840.22;4430830;32;34169;-83
2022/10/22 10:27:11;;;;;;;;;;;;;;;16.77;56.46;99838.19;4429628;32;35453;-82
2022/10/22 10:30:15;;;;;;;;;;;;;;;16.74;55.17;99836.09;4436831;32;35176;-82
2022/10/22 10:36:32;;;;;;;;;;;;;;;16.73;57.23;99837.22;4434266;32;34128;-82
2022/10/22 10:39:26;;;;;;;;;;;;;;;16.24;58.96;99826.16;4424983;32;34903;-82
2022/10/22 10:42:20;;;;;;;;;;;;;;;16.77;57.87;99838.19;4430450;32;35243;-83
2022/10/22 10:48:44;;;;;;;;;;;;;;;16.38;58.94;99837.69;4432822;32;33740;-82
2022/10/22 10:51:42;;;;;;;;;;;;;;;17.00;57.51;99857.88;4428144;32;34951;-83
2022/10/22 10:54:34;;;;;;;;;;;;;;;16.90;59.35;99852.78;4426632;32;35291;-83
2022/10/22 10:57:23;;;;;;;;;;;;;;;17.11;56.78;99852.66;4432131;32;34545;-84
2022/10/22 11:00:19;;;;;;;;;;;;;;;16.88;58.32;99858.69;4434562;32;34921;-84
2022/10/22 11:03:16;;;;;;;;;;;;;;;16.82;59.02;99862.81;4432895;32;34966;-84
2022/10/22 11:06:10;;;;;;;;;;;;;;;17.02;58.24;99861.91;4439006;32;35301;-83
2022/10/22 11:09:04;;;;;;;;;;;;;;;16.95;58.25;99850.59;4429929;32;35206;-83
2022/10/22 11:11:58;;;;;;;;;;;;;;;17.17;57.67;99854.81;4436583;32;34380;-82
2022/10/22 11:14:56;;;;;;;;;;;;;;;17.01;59.92;99846.44;4434192;32;35873;-83
2022/10/22 11:17:44;;;;;;;;;;;;;;;17.25;57.22;99842.81;4435864;32;35154;-83
2022/10/22 11:20:31;;;;;;;;;;;;;;;17.21;58.93;99836.34;4433413;32;34861;-82
2022/10/22 11:23:24;;;;;;;;;;;;;;;17.20;60.33;99833.94;4439474;32;34313;-83
2022/10/22 11:26:34;;;;;;;;;;;;;;;17.15;58.93;99831.41;4434805;32;35867;-84
2022/10/22 11:29:41;;;;;;;;;;;;;;;17.53;58.02;99820.66;4437615;32;35298;-83
2022/10/22 11:32:34;;;;;;;;;;;;;;;17.30;58.79;99825.94;4432696;32;34912;-84
2022/10/22 11:35:24;;;;;;;;;;;;;;;17.62;56.66;99817.75;4427918;32;34903;-85
2022/10/22 11:38:14;;;;;;;;;;;;;;;17.51;57.42;99813.88;4420621;32;34896;-83
2022/10/22 11:41:15;;;;;;;;;;;;;;;17.37;57.94;99817.03;4432332;32;36229;-83
2022/10/22 11:44:03;;;;;;;;;;;;;;;17.26;57.55;99822.25;4429509;32;34819;-83
2022/10/22 11:46:57;;;;;;;;;;;;;;;17.25;59.12;99809.59;4436740;32;34991;-83
2022/10/22 11:49:55;;;;;;;;;;;;;;;17.78;58.35;99803.94;4428400;32;34783;-83
2022/10/22 11:53:11;;;;;;;;;;;;;;;17.37;59.12;99803.19;4428659;32;36129;-84
2022/10/22 11:56:03;;;;;;;;;;;;;;;16.59;60.61;99799.69;4430853;32;34907;-83
2022/10/22 12:02:00;;;;;;;;;;;;;;;17.25;61.77;99803.25;4428906;32;34887;-83
2022/10/22 12:04:49;;;;;;;;;;;;;;;16.34;63.56;99803.59;4434775;32;34337;-83
2022/10/22 12:07:50;;;;;;;;;;;;;;;16.75;61.25;99802.53;4432322;32;35094;-84
2022/10/22 12:10:58;;;;;;;;;;;;;;;17.05;61.09;99796.72;4432074;32;34271;-83
2022/10/22 12:13:58;;;;;;;;;;;;;;;17.48;59.75;99789.63;4433571;32;35758;-83
2022/10/22 12:16:51;;;;;;;;;;;;;;;17.12;60.44;99804.44;4433941;32;35280;-83
2022/10/22 12:19:46;;;;;;;;;;;;;;;17.36;60.17;99790.50;4429119;32;33641;-83
2022/10/22 12:22:41;;;;;;;;;;;;;;;17.50;60.82;99793.66;4445427;32;34035;-83
2022/10/22 12:25:35;;;;;;;;;;;;;;;17.74;60.55;99794.69;4436636;32;34881;-84
2022/10/22 12:28:24;;;;;;;;;;;;;;;17.62;60.65;99784.50;4437015;32;35192;-84
2022/10/22 12:31:17;;;;;;;;;;;;;;;17.54;60.80;99777.94;4445515;32;34850;-83
2022/10/22 12:34:13;;;;;;;;;;;;;;;16.74;63.33;99784.31;4434853;32;33646;-83
2022/10/22 12:37:03;;;;;;;;;;;;;;;16.30;66.10;99792.41;4436247;32;35794;-84
2022/10/22 12:39:50;;;;;;;;;;;;;;;16.02;69.18;99783.97;4432810;32;33953;-84
2022/10/22 12:42:39;;;;;;;;;;;;;;;16.52;67.89;99788.37;4444381;32;35851;-83
2022/10/22 12:45:41;;;;;;;;;;;;;;;16.44;67.29;99803.13;4446803;32;34899;-83
2022/10/22 12:48:33;;;;;;;;;;;;;;;17.08;63.44;99799.59;4444770;32;34625;-83
2022/10/22 12:51:22;;;;;;;;;;;;;;;16.03;67.40;99804.16;4443705;32;34747;-83
2022/10/22 12:54:22;;;;;;;;;;;;;;;16.84;65.04;99803.22;4442167;32;34952;-84
2022/10/22 12:57:11;;;;;;;;;;;;;;;15.58;71.02;99800.22;4431461;32;35016;-83
2022/10/22 13:00:19;;;;;;;;;;;;;;;15.81;70.28;99802.59;4433680;32;33664;-83
2022/10/22 13:03:09;;;;;;;;;;;;;;;15.37;72.39;99805.78;4426178;32;35220;-83
2022/10/22 13:06:11;;;;;;;;;;;;;;;15.45;73.40;99806.84;4434183;32;34785;-83
2022/10/22 13:09:14;;;;;;;;;;;;;;;15.25;74.12;99798.25;4434818;32;34506;-84
2022/10/22 13:12:16;;;;;;;;;;;;;;;15.56;72.82;99796.97;4435311;32;34573;-84
2022/10/22 13:15:28;;;;;;;;;;;;;;;15.80;71.80;99795.47;4432561;32;34762;-83
2022/10/22 13:18:20;;;;;;;;;;;;;;;15.59;74.36;99801.81;4434522;32;34650;-84
2022/10/22 13:21:41;;;;;;;;;;;;;;;15.84;72.40;99796.41;4434621;32;36938;-84
2022/10/22 13:24:29;;;;;;;;;;;;;;;15.00;76.30;99791.81;4410522;32;34260;-83
2022/10/22 13:30:29;;;;;;;;;;;;;;;15.05;78.62;99794.38;4437177;32;34855;-84
2022/10/22 13:33:26;;;;;;;;;;;;;;;15.11;78.73;99794.16;4429676;32;33970;-83
2022/10/22 13:36:14;;;;;;;;;;;;;;;15.53;77.28;99792.94;4423883;32;34567;-84
2022/10/22 13:39:00;;;;;;;;;;;;;;;14.64;84.00;99800.66;4425988;32;35262;-83
2022/10/22 13:41:55;;;;;;;;;;;;;;;14.52;84.85;99789.56;4432604;32;34832;-84
2022/10/22 13:44:47;;;;;;;;;;;;;;;14.97;82.57;99797.19;4436285;32;34003;-84
2022/10/22 13:47:41;;;;;;;;;;;;;;;14.95;83.42;99799.47;4436703;32;34873;-83
2022/10/22 13:50:28;;;;;;;;;;;;;;;14.70;85.31;99804.03;4429232;32;35267;-83
2022/10/22 13:53:18;;;;;;;;;;;;;;;14.66;85.93;99803.91;4433839;32;35006;-84
2022/10/22 13:56:15;;;;;;;;;;;;;;;14.71;86.32;99803.69;4433197;32;33718;-85
2022/10/22 13:59:04;;;;;;;;;;;;;;;14.35;88.17;99813.28;4439503;32;34823;-84
2022/10/22 14:01:53;;;;;;;;;;;;;;;14.63;88.79;99815.59;4432416;32;36224;-84
2022/10/22 14:04:55;;;;;;;;;;;;;;;14.73;86.88;99814.41;4426127;32;34882;-83
2022/10/22 14:07:43;;;;;;;;;;;;;;;14.81;88.06;99803.31;4430399;32;34360;-85
2022/10/22 14:10:31;;;;;;;;;;;;;;;14.43;90.76;99799.78;4434304;32;37836;-85
2022/10/22 14:13:28;;;;;;;;;;;;;;;14.75;89.61;99807.41;4429876;32;36030;-83
2022/10/22 14:16:18;;;;;;;;;;;;;;;14.34;92.21;99811.69;4419346;32;35716;-84
2022/10/22 14:22:07;;;;;;;;;;;;;;;14.51;90.10;99813.50;4426933;32;34679;-85
2022/10/22 14:25:06;;;;;;;;;;;;;;;14.65;88.99;99809.75;4425755;32;34692;-77
2022/10/22 14:28:02;;;;;;;;;;;;;;;14.50;90.32;99805.59;4426242;32;34398;-82
2022/10/22 14:30:54;;;;;;;;;;;;;;;14.51;88.76;99793.41;4422570;32;34555;-80
2022/10/22 14:33:50;;;;;;;;;;;;;;;14.24;90.65;99809.28;4427272;32;35835;-79
2022/10/22 14:36:38;;;;;;;;;;;;;;;14.05;91.49;99817.94;4417478;32;35426;-83
2022/10/22 14:39:28;;;;;;;;;;;;;;;14.24;89.56;99814.00;4415921;32;34520;-83
2022/10/22 14:42:21;;;;;;;;;;;;;;;14.02;91.61;99817.78;4418655;32;33903;-82
2022/10/22 14:45:17;;;;;;;;;;;;;;;14.20;89.98;99819.34;4418181;32;34956;-84
2022/10/22 14:48:03;;;;;;;;;;;;;;;14.33;89.60;99818.31;4398575;32;35137;-84
2022/10/22 14:50:50;;;;;;;;;;;;;;;14.65;87.03;99818.00;4416213;32;34882;-83
2022/10/22 14:53:41;;;;;;;;;;;;;;;14.67;86.17;99816.53;4418863;32;35569;-85
2022/10/22 14:56:32;;;;;;;;;;;;;;;14.40;88.23;99813.09;4419960;32;34445;-83
2022/10/22 14:59:21;;;;;;;;;;;;;;;14.38;89.18;99820.88;4419262;32;35253;-82
2022/10/22 15:02:17;;;;;;;;;;;;;;;14.19;90.30;99828.75;4421440;32;34380;-83